createdAt,value
2018-10-12T00:00:00.720Z,0.00
2018-10-12T00:01:00.663Z,0.00
2018-10-12T00:02:00.617Z,0.00
2018-10-12T00:03:00.580Z,0.00
2018-10-12T00:04:00.548Z,0.00
2018-10-12T00:05:00.535Z,0.00
2018-10-12T00:06:00.475Z,0.00
2018-10-12T00:07:00.433Z,0.00
2018-10-12T00:08:00.389Z,0.00
2018-10-12T00:09:00.351Z,0.00
2018-10-12T00:10:00.340Z,0.00
2018-10-12T00:11:00.273Z,0.00
2018-10-12T00:12:00.245Z,0.00
2018-10-12T00:13:00.207Z,0.00
2018-10-12T00:14:00.168Z,0.00
2018-10-12T00:15:00.159Z,0.00
2018-10-12T00:16:00.086Z,0.00
2018-10-12T00:17:00.048Z,0.00
2018-10-12T00:18:00.020Z,0.00
2018-10-12T00:19:00.000Z,0.00
2018-10-12T00:19:59.932Z,0.00
2018-10-12T00:20:59.894Z,0.00
2018-10-12T00:21:59.858Z,0.00
2018-10-12T00:22:59.819Z,0.00
2018-10-12T00:23:59.815Z,0.00
2018-10-12T00:24:59.750Z,0.00
2018-10-12T00:25:59.719Z,0.00
2018-10-12T00:26:59.672Z,0.00
2018-10-12T00:27:59.626Z,0.00
2018-10-12T00:28:59.611Z,0.00
2018-10-12T00:29:59.551Z,0.00
2018-10-12T00:30:59.516Z,0.00
2018-10-12T00:31:59.486Z,0.00
2018-10-12T00:32:59.443Z,0.00
2018-10-12T00:33:59.422Z,0.00
2018-10-12T00:34:59.361Z,0.00
2018-10-12T00:35:59.330Z,0.00
2018-10-12T00:36:59.290Z,0.00
2018-10-12T00:37:59.252Z,0.00
2018-10-12T00:38:59.219Z,0.00
2018-10-12T00:39:59.191Z,0.00
2018-10-12T00:40:59.140Z,0.00
2018-10-12T00:41:59.091Z,0.00
2018-10-12T00:42:59.057Z,0.00
2018-10-12T00:43:59.050Z,0.00
2018-10-12T00:44:58.987Z,0.00
2018-10-12T00:45:58.948Z,0.00
2018-10-12T00:46:58.924Z,0.00
2018-10-12T00:47:58.866Z,0.00
2018-10-12T00:48:58.827Z,0.00
2018-10-12T00:49:58.820Z,0.00
2018-10-12T00:50:58.757Z,0.00
2018-10-12T00:51:58.713Z,0.00
2018-10-12T00:52:58.679Z,0.00
2018-10-12T00:53:58.658Z,0.00
2018-10-12T00:54:58.597Z,0.00
2018-10-12T00:55:58.570Z,0.00
2018-10-12T00:56:58.525Z,0.00
2018-10-12T00:57:58.488Z,0.00
2018-10-12T00:58:58.479Z,0.00
2018-10-12T00:59:58.409Z,0.00
2018-10-12T01:00:58.373Z,0.00
2018-10-12T01:01:58.333Z,0.00
2018-10-12T01:02:58.313Z,0.00
2018-10-12T01:03:58.262Z,0.00
2018-10-12T01:04:58.223Z,0.00
2018-10-12T01:05:58.178Z,0.00
2018-10-12T01:06:58.140Z,0.00
2018-10-12T01:07:58.136Z,0.00
2018-10-12T01:08:58.076Z,0.00
2018-10-12T01:09:58.034Z,0.00
2018-10-12T01:10:57.995Z,0.00
2018-10-12T01:11:57.972Z,0.00
2018-10-12T01:12:57.913Z,0.00
2018-10-12T01:13:57.874Z,0.00
2018-10-12T01:14:57.840Z,0.00
2018-10-12T01:15:57.803Z,0.00
2018-10-12T01:16:57.791Z,0.00
2018-10-12T01:17:57.754Z,0.00
2018-10-12T01:18:57.688Z,0.00
2018-10-12T01:19:57.644Z,0.00
2018-10-12T01:20:57.608Z,0.00
2018-10-12T01:21:57.573Z,0.00
2018-10-12T01:22:57.558Z,0.00
2018-10-12T01:23:57.490Z,0.00
2018-10-12T01:24:57.456Z,0.00
2018-10-12T01:25:57.420Z,0.00
2018-10-12T01:26:57.381Z,0.00
2018-10-12T01:27:57.368Z,0.00
2018-10-12T01:28:57.312Z,0.00
2018-10-12T01:29:57.275Z,0.00
2018-10-12T01:30:57.236Z,0.00
2018-10-12T01:31:57.186Z,0.00
2018-10-12T01:32:57.174Z,0.00
2018-10-12T01:33:57.113Z,0.00
2018-10-12T01:34:57.072Z,0.00
2018-10-12T01:35:57.039Z,0.00
2018-10-12T01:36:57.003Z,0.00
2018-10-12T01:37:56.980Z,0.00
2018-10-12T01:38:56.919Z,0.00
2018-10-12T01:39:56.885Z,0.00
2018-10-12T01:40:56.851Z,0.00
2018-10-12T01:41:56.809Z,0.00
2018-10-12T01:42:56.797Z,0.00
2018-10-12T01:43:56.737Z,0.00
2018-10-12T01:44:56.691Z,0.00
2018-10-12T01:45:56.651Z,0.00
2018-10-12T01:46:56.618Z,0.00
2018-10-12T01:47:56.608Z,0.00
2018-10-12T01:48:56.545Z,0.00
2018-10-12T01:49:56.506Z,0.00
2018-10-12T01:50:56.469Z,0.00
2018-10-12T01:51:56.422Z,0.00
2018-10-12T01:52:56.406Z,0.00
2018-10-12T01:53:56.376Z,0.00
2018-10-12T01:54:56.315Z,0.00
2018-10-12T01:55:56.273Z,0.00
2018-10-12T01:56:56.234Z,0.00
2018-10-12T01:57:56.223Z,0.00
2018-10-12T01:58:56.159Z,0.00
2018-10-12T01:59:56.124Z,0.00
2018-10-12T02:00:56.090Z,0.00
2018-10-12T02:01:56.070Z,0.00
2018-10-12T02:02:56.038Z,0.00
2018-10-12T02:03:55.965Z,0.00
2018-10-12T02:04:55.925Z,0.00
2018-10-12T02:05:55.886Z,0.00
2018-10-12T02:06:55.853Z,0.00
2018-10-12T02:07:55.818Z,0.00
2018-10-12T02:08:55.804Z,0.00
2018-10-12T02:09:55.741Z,0.00
2018-10-12T02:10:55.696Z,0.00
2018-10-12T02:11:55.666Z,0.00
2018-10-12T02:13:04.678Z,0.00
2018-10-12T02:14:05.236Z,0.00
2018-10-12T02:15:05.753Z,0.00
2018-10-12T02:16:04.794Z,0.00
2018-10-12T02:17:05.827Z,0.00
2018-10-12T02:18:04.851Z,0.00
2018-10-12T02:18:55.406Z,0.00
2018-10-12T02:19:55.355Z,0.00
2018-10-12T02:20:55.321Z,0.00
2018-10-12T02:21:55.283Z,0.00
2018-10-12T02:22:55.239Z,0.00
2018-10-12T02:23:55.221Z,0.00
2018-10-12T02:24:55.156Z,0.00
2018-10-12T02:25:55.116Z,0.00
2018-10-12T02:26:55.079Z,0.00
2018-10-12T02:27:55.049Z,0.00
2018-10-12T02:28:55.011Z,0.00
2018-10-12T02:29:54.989Z,0.00
2018-10-12T02:30:54.925Z,0.00
2018-10-12T02:31:54.893Z,0.00
2018-10-12T02:32:54.855Z,0.00
2018-10-12T02:33:54.819Z,0.00
2018-10-12T02:34:54.803Z,0.00
2018-10-12T02:35:54.733Z,0.00
2018-10-12T02:36:54.695Z,0.00
2018-10-12T02:38:03.897Z,0.00
2018-10-12T02:39:04.940Z,0.00
2018-10-12T02:40:03.491Z,0.00
2018-10-12T02:41:04.001Z,0.00
2018-10-12T02:42:04.533Z,0.00
2018-10-12T02:43:03.564Z,0.00
2018-10-12T02:44:03.599Z,0.00
2018-10-12T02:45:04.637Z,0.00
2018-10-12T02:46:03.200Z,0.00
2018-10-12T02:47:03.727Z,0.00
2018-10-12T02:48:03.745Z,0.00
2018-10-12T02:48:54.234Z,0.00
2018-10-12T02:50:03.291Z,0.00
2018-10-12T02:50:54.181Z,0.00
2018-10-12T02:53:42.091Z,0.00
2018-10-12T02:54:42.616Z,0.00
2018-10-12T02:55:42.169Z,0.00
2018-10-12T02:56:33.255Z,0.00
2018-10-12T02:57:33.217Z,0.00
2018-10-12T02:58:33.170Z,0.00
2018-10-12T02:59:33.130Z,0.00
2018-10-12T03:00:33.093Z,0.00
2018-10-12T03:01:33.074Z,0.00
2018-10-12T03:02:33.020Z,0.00
2018-10-12T03:03:32.982Z,0.00
2018-10-12T03:04:32.962Z,0.00
2018-10-12T03:05:32.903Z,0.00
2018-10-12T03:06:41.708Z,0.00
2018-10-12T03:07:32.819Z,0.00
2018-10-12T03:08:32.788Z,0.00
2018-10-12T03:09:32.745Z,0.00
2018-10-12T03:10:32.707Z,0.00
2018-10-12T03:11:41.259Z,0.00
2018-10-12T03:12:41.758Z,0.00
2018-10-12T03:13:41.791Z,0.00
2018-10-12T03:14:42.827Z,0.00
2018-10-12T03:15:41.850Z,0.00
2018-10-12T03:16:41.882Z,0.00
2018-10-12T03:17:41.431Z,0.00
2018-10-12T03:18:42.452Z,0.00
2018-10-12T03:19:41.476Z,0.00
2018-10-12T03:20:41.512Z,0.00
2018-10-12T03:21:41.546Z,0.00
2018-10-12T03:22:41.101Z,0.00
2018-10-12T03:23:41.609Z,0.00
2018-10-12T03:24:41.648Z,0.00
2018-10-12T03:25:41.168Z,0.00
2018-10-12T03:26:32.073Z,0.00
2018-10-12T03:27:32.066Z,0.00
2018-10-12T03:28:32.005Z,0.00
2018-10-12T03:29:31.965Z,0.00
2018-10-12T03:30:31.916Z,0.00
2018-10-12T03:31:31.878Z,0.00
2018-10-12T03:32:31.837Z,0.00
2018-10-12T03:33:31.822Z,0.00
2018-10-12T03:34:31.765Z,0.00
2018-10-12T03:35:31.729Z,0.00
2018-10-12T03:36:31.688Z,0.00
2018-10-12T03:37:31.650Z,0.00
2018-10-12T03:38:31.627Z,0.00
2018-10-12T03:39:31.564Z,0.00
2018-10-12T03:40:31.530Z,0.00
2018-10-12T03:41:31.491Z,0.00
2018-10-12T03:42:31.456Z,0.00
2018-10-12T03:43:31.440Z,0.00
2018-10-12T03:44:31.371Z,0.00
2018-10-12T03:45:31.333Z,0.00
2018-10-12T03:46:31.330Z,0.00
2018-10-12T03:47:31.262Z,0.00
2018-10-12T03:48:31.225Z,0.00
2018-10-12T03:49:31.207Z,0.00
2018-10-12T03:50:31.139Z,0.00
2018-10-12T03:51:31.103Z,0.00
2018-10-12T03:52:31.075Z,0.00
2018-10-12T03:53:31.032Z,0.00
2018-10-12T03:54:31.012Z,0.00
2018-10-12T03:55:30.950Z,0.00
2018-10-12T03:56:30.909Z,0.00
2018-10-12T03:57:30.871Z,0.00
2018-10-12T03:58:30.838Z,0.00
2018-10-12T03:59:30.827Z,0.00
2018-10-12T04:00:30.758Z,0.00
2018-10-12T04:01:30.718Z,0.00
2018-10-12T04:02:30.685Z,0.00
2018-10-12T04:03:30.647Z,0.00
2018-10-12T04:04:30.639Z,0.00
2018-10-12T04:05:30.572Z,0.00
2018-10-12T04:06:30.525Z,0.00
2018-10-12T04:07:30.486Z,0.00
2018-10-12T04:08:30.450Z,0.00
2018-10-12T04:09:30.410Z,0.00
2018-10-12T04:10:30.405Z,0.00
2018-10-12T04:11:30.340Z,0.00
2018-10-12T04:12:30.321Z,0.00
2018-10-12T04:13:30.264Z,0.00
2018-10-12T04:14:30.242Z,0.00
2018-10-12T04:15:30.205Z,0.00
2018-10-12T04:16:30.151Z,0.00
2018-10-12T04:17:30.110Z,0.00
2018-10-12T04:18:30.063Z,0.00
2018-10-12T04:19:30.024Z,0.00
2018-10-12T04:20:30.017Z,0.00
2018-10-12T04:21:29.951Z,0.00
2018-10-12T04:22:29.920Z,0.00
2018-10-12T04:23:29.887Z,0.00
2018-10-12T04:24:29.841Z,0.00
2018-10-12T04:25:29.802Z,0.00
2018-10-12T04:26:29.781Z,0.00
2018-10-12T04:27:29.718Z,0.00
2018-10-12T04:28:29.681Z,0.00
2018-10-12T04:29:29.642Z,0.00
2018-10-12T04:30:29.612Z,0.00
2018-10-12T04:31:29.594Z,0.00
2018-10-12T04:32:29.525Z,0.00
2018-10-12T04:33:29.490Z,0.00
2018-10-12T04:34:29.457Z,0.00
2018-10-12T04:35:29.416Z,0.00
2018-10-12T04:36:29.403Z,0.00
2018-10-12T04:37:29.361Z,0.00
2018-10-12T04:38:29.295Z,0.00
2018-10-12T04:39:29.259Z,0.00
2018-10-12T04:40:29.221Z,0.00
2018-10-12T04:41:29.179Z,0.00
2018-10-12T04:42:29.170Z,0.00
2018-10-12T04:43:29.113Z,0.00
2018-10-12T04:44:29.070Z,0.00
2018-10-12T04:45:29.033Z,0.00
2018-10-12T04:46:28.987Z,0.00
2018-10-12T04:47:28.988Z,0.00
2018-10-12T04:48:28.921Z,0.00
2018-10-12T04:49:28.877Z,0.00
2018-10-12T04:50:28.833Z,0.00
2018-10-12T04:51:28.797Z,0.00
2018-10-12T04:52:28.755Z,0.00
2018-10-12T04:53:28.737Z,0.00
2018-10-12T04:54:28.685Z,0.00
2018-10-12T04:55:28.651Z,0.00
2018-10-12T04:56:28.607Z,0.00
2018-10-12T04:57:28.569Z,0.00
2018-10-12T04:58:28.556Z,0.00
2018-10-12T04:59:28.489Z,0.00
2018-10-12T05:00:28.447Z,0.00
2018-10-12T05:01:28.409Z,0.00
2018-10-12T05:02:28.381Z,0.00
2018-10-12T05:03:28.361Z,0.00
2018-10-12T05:04:28.297Z,0.00
2018-10-12T05:05:28.257Z,0.00
2018-10-12T05:06:28.249Z,0.00
2018-10-12T05:07:28.194Z,0.00
2018-10-12T05:08:28.150Z,0.00
2018-10-12T05:09:28.128Z,0.00
2018-10-12T05:10:28.064Z,0.00
2018-10-12T05:11:28.025Z,0.00
2018-10-12T05:12:27.986Z,0.00
2018-10-12T05:13:27.947Z,0.00
2018-10-12T05:14:27.942Z,4.00
2018-10-12T05:15:27.878Z,4.00
2018-10-12T05:16:27.844Z,0.00
2018-10-12T05:17:27.820Z,0.00
2018-10-12T05:18:27.753Z,4.00
2018-10-12T05:19:27.748Z,0.00
2018-10-12T05:20:27.684Z,4.00
2018-10-12T05:21:27.646Z,4.00
2018-10-12T05:22:27.598Z,8.00
2018-10-12T05:23:27.558Z,8.00
2018-10-12T05:24:27.545Z,8.00
2018-10-12T05:25:27.482Z,12.00
2018-10-12T05:26:27.452Z,12.00
2018-10-12T05:27:27.434Z,16.00
2018-10-12T05:28:27.373Z,20.00
2018-10-12T05:29:27.357Z,20.00
2018-10-12T05:30:27.288Z,28.00
2018-10-12T05:31:27.250Z,28.00
2018-10-12T05:32:27.216Z,32.00
2018-10-12T05:33:27.176Z,40.00
2018-10-12T05:34:27.174Z,48.00
2018-10-12T05:35:27.115Z,60.00
2018-10-12T05:36:27.061Z,68.00
2018-10-12T05:37:27.021Z,80.00
2018-10-12T05:38:26.986Z,92.00
2018-10-12T05:39:26.949Z,112.00
2018-10-12T05:40:26.935Z,128.00
2018-10-12T05:41:26.872Z,144.00
2018-10-12T05:42:26.832Z,164.00
2018-10-12T05:43:26.927Z,184.00
2018-10-12T05:44:26.748Z,204.00
2018-10-12T05:45:26.737Z,224.00
2018-10-12T05:46:26.682Z,252.00
2018-10-12T05:47:26.642Z,272.00
2018-10-12T05:48:26.599Z,304.00
2018-10-12T05:49:26.574Z,336.00
2018-10-12T05:50:26.539Z,364.00
2018-10-12T05:51:26.479Z,400.00
2018-10-12T05:52:26.471Z,432.00
2018-10-12T05:53:26.410Z,472.00
2018-10-12T05:54:26.364Z,512.00
2018-10-12T05:55:26.328Z,560.00
2018-10-12T05:56:26.293Z,604.00
2018-10-12T05:57:26.270Z,656.00
2018-10-12T05:58:26.213Z,708.00
2018-10-12T05:59:26.177Z,756.00
2018-10-12T06:00:26.134Z,812.00
2018-10-12T06:01:26.148Z,872.00
2018-10-12T06:02:26.075Z,932.00
2018-10-12T06:03:26.013Z,996.00
2018-10-12T06:04:25.977Z,1060.00
2018-10-12T06:05:25.964Z,1128.00
2018-10-12T06:06:25.903Z,1192.00
2018-10-12T06:07:25.892Z,1260.00
2018-10-12T06:08:25.820Z,1340.00
2018-10-12T06:09:25.831Z,1420.00
2018-10-12T06:10:25.771Z,1508.00
2018-10-12T06:11:25.755Z,1596.00
2018-10-12T06:12:25.677Z,1668.00
2018-10-12T06:13:25.640Z,1752.00
2018-10-12T06:14:25.593Z,1848.00
2018-10-12T06:15:25.645Z,1936.00
2018-10-12T06:16:25.513Z,2016.00
2018-10-12T06:17:25.473Z,2084.00
2018-10-12T06:18:25.441Z,2148.00
2018-10-12T06:19:25.402Z,2204.00
2018-10-12T06:20:25.367Z,2264.00
2018-10-12T06:21:25.392Z,2316.00
2018-10-12T06:22:25.282Z,2364.00
2018-10-12T06:23:25.242Z,2412.00
2018-10-12T06:24:25.218Z,2452.00
2018-10-12T06:25:25.181Z,2528.00
2018-10-12T06:26:25.149Z,2992.00
2018-10-12T06:27:25.111Z,4524.00
2018-10-12T06:28:25.054Z,5492.00
2018-10-12T06:29:25.012Z,5392.00
2018-10-12T06:30:24.990Z,5320.00
2018-10-12T06:31:24.968Z,5536.00
2018-10-12T06:32:24.928Z,5724.00
2018-10-12T06:33:24.869Z,5552.00
2018-10-12T06:34:24.826Z,5664.00
2018-10-12T06:35:24.785Z,5836.00
2018-10-12T06:36:24.768Z,5864.00
2018-10-12T06:37:24.710Z,5804.00
2018-10-12T06:38:24.677Z,5844.00
2018-10-12T06:39:24.675Z,6316.00
2018-10-12T06:40:24.600Z,6640.00
2018-10-12T06:41:24.627Z,6744.00
2018-10-12T06:42:24.529Z,6776.00
2018-10-12T06:43:24.513Z,6980.00
2018-10-12T06:44:24.456Z,6676.00
2018-10-12T06:45:24.421Z,6860.00
2018-10-12T06:46:24.445Z,7712.00
2018-10-12T06:47:24.338Z,6832.00
2018-10-12T06:48:24.329Z,5936.00
2018-10-12T06:49:24.266Z,7508.00
2018-10-12T06:50:24.235Z,7712.00
2018-10-12T06:51:24.198Z,7672.00
2018-10-12T06:52:24.161Z,7696.00
2018-10-12T06:53:24.151Z,7220.00
2018-10-12T06:54:24.087Z,7084.00
2018-10-12T06:55:24.049Z,6992.00
2018-10-12T06:56:24.019Z,7224.00
2018-10-12T06:57:23.985Z,7576.00
2018-10-12T06:58:23.964Z,7100.00
2018-10-12T06:59:23.907Z,7388.00
2018-10-12T07:00:23.871Z,7772.00
2018-10-12T07:01:23.831Z,8400.00
2018-10-12T07:02:23.807Z,8372.00
2018-10-12T07:03:23.791Z,8516.00
2018-10-12T07:04:23.732Z,9048.00
2018-10-12T07:05:23.718Z,9144.00
2018-10-12T07:06:23.655Z,8692.00
2018-10-12T07:07:23.617Z,8724.00
2018-10-12T07:08:23.584Z,5320.00
2018-10-12T07:09:23.552Z,8024.00
2018-10-12T07:10:23.545Z,9312.00
2018-10-12T07:11:23.484Z,9144.00
2018-10-12T07:12:23.446Z,9172.00
2018-10-12T07:13:23.409Z,9096.00
2018-10-12T07:14:23.403Z,8560.00
2018-10-12T07:15:23.344Z,8636.00
2018-10-12T07:16:23.308Z,9656.00
2018-10-12T07:17:23.272Z,9520.00
2018-10-12T07:18:23.231Z,9604.00
2018-10-12T07:19:23.259Z,10056.00
2018-10-12T07:20:23.163Z,10356.00
2018-10-12T07:21:23.127Z,10296.00
2018-10-12T07:22:23.098Z,10676.00
2018-10-12T07:23:23.068Z,10848.00
2018-10-12T07:24:23.030Z,10352.00
2018-10-12T07:25:23.021Z,10548.00
2018-10-12T07:26:22.953Z,9988.00
2018-10-12T07:27:22.921Z,10856.00
2018-10-12T07:28:22.895Z,10860.00
2018-10-12T07:29:22.855Z,11240.00
2018-10-12T07:30:22.839Z,11728.00
2018-10-12T07:31:22.796Z,11896.00
2018-10-12T07:32:22.750Z,12092.00
2018-10-12T07:33:22.714Z,12188.00
2018-10-12T07:34:22.685Z,12852.00
2018-10-12T07:35:22.674Z,14272.00
2018-10-12T07:36:22.615Z,16096.00
2018-10-12T07:37:22.935Z,17216.00
2018-10-12T07:38:22.537Z,17152.00
2018-10-12T07:39:22.504Z,14356.00
2018-10-12T07:40:22.497Z,16096.00
2018-10-12T07:41:22.438Z,8280.00
2018-10-12T07:42:22.460Z,6052.00
2018-10-12T07:43:22.379Z,5440.00
2018-10-12T07:44:22.340Z,5136.00
2018-10-12T07:45:22.302Z,4860.00
2018-10-12T07:46:22.297Z,4576.00
2018-10-12T07:47:22.297Z,4480.00
2018-10-12T07:48:22.238Z,4548.00
2018-10-12T07:49:22.174Z,5080.00
2018-10-12T07:50:22.132Z,13508.00
2018-10-12T07:51:22.123Z,13568.00
2018-10-12T07:52:22.062Z,13932.00
2018-10-12T07:53:22.099Z,14108.00
2018-10-12T07:54:22.023Z,12280.00
2018-10-12T07:55:21.968Z,15048.00
2018-10-12T07:56:21.956Z,14932.00
2018-10-12T07:57:21.901Z,14616.00
2018-10-12T07:58:21.862Z,14488.00
2018-10-12T07:59:21.844Z,14424.00
2018-10-12T08:00:21.888Z,14124.00
2018-10-12T08:01:21.779Z,14024.00
2018-10-12T08:02:21.743Z,14204.00
2018-10-12T08:03:21.688Z,14144.00
2018-10-12T08:04:21.655Z,14192.00
2018-10-12T08:05:21.619Z,14196.00
2018-10-12T08:06:21.699Z,14272.00
2018-10-12T08:07:21.585Z,14308.00
2018-10-12T08:08:21.523Z,14384.00
2018-10-12T08:09:21.490Z,14376.00
2018-10-12T08:10:21.453Z,14344.00
2018-10-12T08:11:21.417Z,14444.00
2018-10-12T08:12:21.417Z,14204.00
2018-10-12T08:13:21.352Z,13452.00
2018-10-12T08:14:21.329Z,14628.00
2018-10-12T08:15:21.295Z,14552.00
2018-10-12T08:16:21.256Z,14976.00
2018-10-12T08:17:21.220Z,15776.00
2018-10-12T08:18:21.214Z,16800.00
2018-10-12T08:19:21.161Z,10548.00
2018-10-12T08:20:21.150Z,19456.00
2018-10-12T08:21:21.100Z,20096.00
2018-10-12T08:22:21.055Z,18592.00
2018-10-12T08:23:21.046Z,12300.00
2018-10-12T08:24:20.991Z,12132.00
2018-10-12T08:25:20.959Z,15856.00
2018-10-12T08:26:20.930Z,12336.00
2018-10-12T08:27:20.902Z,14864.00
2018-10-12T08:28:20.891Z,15036.00
2018-10-12T08:29:20.836Z,9592.00
2018-10-12T08:30:20.791Z,9396.00
2018-10-12T08:31:20.773Z,9292.00
2018-10-12T08:32:20.732Z,9248.00
2018-10-12T08:33:20.724Z,9732.00
2018-10-12T08:34:20.660Z,11456.00
2018-10-12T08:35:20.626Z,11112.00
2018-10-12T08:36:20.617Z,12468.00
2018-10-12T08:37:20.560Z,12760.00
2018-10-12T08:38:20.530Z,13040.00
2018-10-12T08:39:20.522Z,12748.00
2018-10-12T08:40:20.460Z,15108.00
2018-10-12T08:41:20.428Z,10664.00
2018-10-12T08:42:20.388Z,9732.00
2018-10-12T08:43:20.355Z,10268.00
2018-10-12T08:44:20.344Z,11404.00
2018-10-12T08:45:20.286Z,8928.00
2018-10-12T08:46:20.265Z,12724.00
2018-10-12T08:47:20.232Z,7608.00
2018-10-12T08:48:20.185Z,8324.00
2018-10-12T08:49:20.176Z,8388.00
2018-10-12T08:50:20.128Z,9120.00
2018-10-12T08:51:20.088Z,10608.00
2018-10-12T08:52:20.056Z,12048.00
2018-10-12T08:53:20.017Z,13144.00
2018-10-12T08:54:19.978Z,14644.00
2018-10-12T08:55:20.017Z,15040.00
2018-10-12T08:56:19.912Z,14684.00
2018-10-12T08:57:19.873Z,15612.00
2018-10-12T08:58:19.845Z,15964.00
2018-10-12T08:59:19.812Z,20416.00
2018-10-12T09:00:19.807Z,20640.00
2018-10-12T09:01:19.743Z,20832.00
2018-10-12T09:02:19.702Z,15788.00
2018-10-12T09:03:19.671Z,20384.00
2018-10-12T09:04:19.643Z,18784.00
2018-10-12T09:05:19.610Z,21440.00
2018-10-12T09:06:19.588Z,19936.00
2018-10-12T09:07:19.531Z,19840.00
2018-10-12T09:08:19.498Z,20992.00
2018-10-12T09:09:19.471Z,21248.00
2018-10-12T09:10:19.442Z,21216.00
2018-10-12T09:11:19.431Z,21952.00
2018-10-12T09:12:19.373Z,23296.00
2018-10-12T09:13:19.340Z,23648.00
2018-10-12T09:14:19.299Z,23328.00
2018-10-12T09:15:19.269Z,21632.00
2018-10-12T09:16:19.247Z,18240.00
2018-10-12T09:17:19.224Z,19360.00
2018-10-12T09:18:19.177Z,12352.00
2018-10-12T09:19:19.143Z,12900.00
2018-10-12T09:20:19.143Z,20064.00
2018-10-12T09:21:19.094Z,18784.00
2018-10-12T09:22:19.047Z,16800.00
2018-10-12T09:23:19.015Z,15908.00
2018-10-12T09:24:18.982Z,16448.00
2018-10-12T09:25:18.961Z,14740.00
2018-10-12T09:26:18.937Z,15048.00
2018-10-12T09:27:18.953Z,15444.00
2018-10-12T09:28:18.848Z,14968.00
2018-10-12T09:29:18.815Z,13468.00
2018-10-12T09:30:18.823Z,14196.00
2018-10-12T09:31:18.758Z,14836.00
2018-10-12T09:32:18.749Z,15056.00
2018-10-12T09:33:18.694Z,15100.00
2018-10-12T09:34:18.657Z,15228.00
2018-10-12T09:35:18.626Z,15200.00
2018-10-12T09:36:18.606Z,11312.00
2018-10-12T09:37:18.592Z,13556.00
2018-10-12T09:38:18.530Z,9620.00
2018-10-12T09:39:18.498Z,15352.00
2018-10-12T09:40:18.471Z,16736.00
2018-10-12T09:41:18.439Z,16124.00
2018-10-12T09:42:18.426Z,10696.00
2018-10-12T09:43:18.413Z,18112.00
2018-10-12T09:44:18.373Z,16384.00
2018-10-12T09:45:18.311Z,8584.00
2018-10-12T09:46:18.278Z,7512.00
2018-10-12T09:47:18.266Z,7432.00
2018-10-12T09:48:18.232Z,11556.00
2018-10-12T09:49:18.177Z,12780.00
2018-10-12T09:50:18.236Z,11488.00
2018-10-12T09:51:18.120Z,13404.00
2018-10-12T09:52:18.105Z,13804.00
2018-10-12T09:53:18.071Z,13896.00
2018-10-12T09:54:18.020Z,13808.00
2018-10-12T09:55:17.989Z,13788.00
2018-10-12T09:56:17.960Z,13744.00
2018-10-12T09:57:17.929Z,13520.00
2018-10-12T09:58:17.931Z,13632.00
2018-10-12T09:59:17.854Z,13500.00
2018-10-12T10:00:17.824Z,13452.00
2018-10-12T10:01:17.790Z,13592.00
2018-10-12T10:02:17.876Z,13556.00
2018-10-12T10:03:17.732Z,13548.00
2018-10-12T10:04:17.724Z,13404.00
2018-10-12T10:05:17.672Z,13336.00
2018-10-12T10:06:17.631Z,13420.00
2018-10-12T10:07:17.624Z,13264.00
2018-10-12T10:08:17.679Z,13344.00
2018-10-12T10:09:17.542Z,13236.00
2018-10-12T10:10:17.502Z,12976.00
2018-10-12T10:11:17.473Z,12884.00
2018-10-12T10:12:17.443Z,12980.00
2018-10-12T10:13:17.428Z,12904.00
2018-10-12T10:14:17.414Z,13016.00
2018-10-12T10:15:17.390Z,12900.00
2018-10-12T10:16:17.318Z,12728.00
2018-10-12T10:17:17.289Z,12732.00
2018-10-12T10:18:17.251Z,12868.00
2018-10-12T10:19:17.276Z,12796.00
2018-10-12T10:20:17.215Z,12736.00
2018-10-12T10:21:17.155Z,12656.00
2018-10-12T10:22:17.143Z,12656.00
2018-10-12T10:23:17.123Z,12628.00
2018-10-12T10:24:17.061Z,12560.00
2018-10-12T10:25:17.031Z,12544.00
2018-10-12T10:26:17.029Z,12452.00
2018-10-12T10:27:16.979Z,12468.00
2018-10-12T10:28:16.943Z,12456.00
2018-10-12T10:29:17.048Z,12248.00
2018-10-12T10:30:16.875Z,12168.00
2018-10-12T10:31:16.846Z,12344.00
2018-10-12T10:32:16.882Z,12296.00
2018-10-12T10:33:16.780Z,12264.00
2018-10-12T10:34:16.783Z,12180.00
2018-10-12T10:35:16.724Z,12256.00
2018-10-12T10:36:16.694Z,12144.00
2018-10-12T10:37:16.665Z,12184.00
2018-10-12T10:38:16.627Z,12068.00
2018-10-12T10:39:16.599Z,12148.00
2018-10-12T10:40:16.600Z,11948.00
2018-10-12T10:41:16.544Z,12028.00
2018-10-12T10:42:16.506Z,11964.00
2018-10-12T10:43:16.475Z,11648.00
2018-10-12T10:44:16.446Z,11812.00
2018-10-12T10:45:16.515Z,11716.00
2018-10-12T10:46:16.429Z,11808.00
2018-10-12T10:47:16.361Z,12016.00
2018-10-12T10:48:16.332Z,12116.00
2018-10-12T10:49:16.301Z,11984.00
2018-10-12T10:50:16.285Z,12060.00
2018-10-12T10:51:16.232Z,12020.00
2018-10-12T10:52:16.203Z,12008.00
2018-10-12T10:53:16.172Z,11992.00
2018-10-12T10:54:16.148Z,11928.00
2018-10-12T10:55:16.141Z,11980.00
2018-10-12T10:56:16.081Z,11992.00
2018-10-12T10:57:16.049Z,12076.00
2018-10-12T10:58:16.026Z,12184.00
2018-10-12T10:59:15.997Z,12232.00
2018-10-12T11:00:15.997Z,12016.00
2018-10-12T11:01:15.934Z,11868.00
2018-10-12T11:02:15.897Z,11844.00
2018-10-12T11:03:15.867Z,11880.00
2018-10-12T11:04:15.838Z,11984.00
2018-10-12T11:05:15.803Z,11992.00
2018-10-12T11:06:15.817Z,11976.00
2018-10-12T11:07:15.753Z,11836.00
2018-10-12T11:08:15.721Z,11956.00
2018-10-12T11:09:15.690Z,11836.00
2018-10-12T11:10:15.653Z,11768.00
2018-10-12T11:11:15.648Z,11584.00
2018-10-12T11:12:15.658Z,11644.00
2018-10-12T11:13:15.690Z,11644.00
2018-10-12T11:14:15.528Z,11616.00
2018-10-12T11:15:15.499Z,11588.00
2018-10-12T11:16:15.492Z,11540.00
2018-10-12T11:17:15.463Z,11488.00
2018-10-12T11:18:15.414Z,11492.00
2018-10-12T11:19:15.386Z,11460.00
2018-10-12T11:20:15.355Z,11540.00
2018-10-12T11:21:15.324Z,11516.00
2018-10-12T11:22:15.282Z,11476.00
2018-10-12T11:23:15.282Z,11496.00
2018-10-12T11:24:15.266Z,11516.00
2018-10-12T11:25:15.195Z,11608.00
2018-10-12T11:26:15.206Z,11600.00
2018-10-12T11:27:15.138Z,11400.00
2018-10-12T11:28:15.106Z,11312.00
2018-10-12T11:29:15.072Z,11304.00
2018-10-12T11:30:15.047Z,10940.00
2018-10-12T11:31:15.040Z,10956.00
2018-10-12T11:32:14.988Z,10352.00
2018-10-12T11:33:14.978Z,10720.00
2018-10-12T11:34:14.917Z,10812.00
2018-10-12T11:35:14.887Z,10904.00
2018-10-12T11:36:14.855Z,11188.00
2018-10-12T11:37:14.864Z,11720.00
2018-10-12T11:38:14.845Z,11792.00
2018-10-12T11:39:14.773Z,11644.00
2018-10-12T11:40:14.741Z,11564.00
2018-10-12T11:41:14.709Z,11824.00
2018-10-12T11:42:14.691Z,11856.00
2018-10-12T11:43:14.641Z,12036.00
2018-10-12T11:44:14.616Z,12280.00
2018-10-12T11:45:14.631Z,12304.00
2018-10-12T11:46:14.551Z,12072.00
2018-10-12T11:47:14.546Z,11780.00
2018-10-12T11:48:14.487Z,11520.00
2018-10-12T11:49:14.462Z,11192.00
2018-10-12T11:50:14.432Z,11812.00
2018-10-12T11:51:14.400Z,12172.00
2018-10-12T11:52:14.440Z,12452.00
2018-10-12T11:53:14.360Z,12764.00
2018-10-12T11:54:14.301Z,12692.00
2018-10-12T11:55:14.272Z,12712.00
2018-10-12T11:56:14.242Z,13348.00
2018-10-12T11:57:14.236Z,13412.00
2018-10-12T11:58:14.205Z,13184.00
2018-10-12T11:59:14.155Z,13588.00
2018-10-12T12:00:14.115Z,13868.00
2018-10-12T12:01:14.083Z,12948.00
2018-10-12T12:02:14.112Z,12564.00
2018-10-12T12:03:14.055Z,11996.00
2018-10-12T12:04:13.995Z,12120.00
2018-10-12T12:05:13.963Z,12204.00
2018-10-12T12:06:13.927Z,12024.00
2018-10-12T12:07:13.924Z,12052.00
2018-10-12T12:08:13.892Z,12488.00
2018-10-12T12:09:13.833Z,12236.00
2018-10-12T12:10:13.809Z,12020.00
2018-10-12T12:11:13.776Z,12328.00
2018-10-12T12:12:13.746Z,12524.00
2018-10-12T12:13:13.715Z,12588.00
2018-10-12T12:14:13.703Z,12092.00
2018-10-12T12:15:13.646Z,11644.00
2018-10-12T12:16:13.622Z,11808.00
2018-10-12T12:17:13.588Z,12868.00
2018-10-12T12:18:13.574Z,12904.00
2018-10-12T12:19:13.526Z,12428.00
2018-10-12T12:20:13.486Z,11308.00
2018-10-12T12:21:13.476Z,11548.00
2018-10-12T12:22:13.430Z,12024.00
2018-10-12T12:23:13.408Z,12424.00
2018-10-12T12:24:13.392Z,12312.00
2018-10-12T12:25:13.334Z,12200.00
2018-10-12T12:26:13.296Z,12072.00
2018-10-12T12:27:13.270Z,12028.00
2018-10-12T12:28:13.235Z,11848.00
2018-10-12T12:29:13.223Z,11460.00